sensor_id;sensor_type;location;lat;lon;timestamp;temperature;humidity
666;DHT22;315;48.738;9.126;2023-04-15T00:02:17;6.20;99.90
666;DHT22;315;48.738;9.126;2023-04-15T00:04:45;6.20;99.90
666;DHT22;315;48.738;9.126;2023-04-15T00:07:10;6.10;99.90
666;DHT22;315;48.738;9.126;2023-04-15T00:09:36;6.10;99.90
666;DHT22;315;48.738;9.126;2023-04-15T00:12:02;6.10;99.90
666;DHT22;315;48.738;9.126;2023-04-15T00:14:28;6.00;99.90
666;DHT22;315;48.738;9.126;2023-04-15T00:16:53;6.10;99.90
666;DHT22;315;48.738;9.126;2023-04-15T00:19:21;6.10;99.90
666;DHT22;315;48.738;9.126;2023-04-15T00:21:47;6.10;99.90
666;DHT22;315;48.738;9.126;2023-04-15T00:24:12;6.10;99.90
666;DHT22;315;48.738;9.126;2023-04-15T00:26:38;6.20;99.90
666;DHT22;315;48.738;9.126;2023-04-15T00:29:04;6.10;99.90
666;DHT22;315;48.738;9.126;2023-04-15T00:31:30;6.10;99.90
666;DHT22;315;48.738;9.126;2023-04-15T00:33:56;6.00;99.90
666;DHT22;315;48.738;9.126;2023-04-15T00:36:21;5.90;99.90
666;DHT22;315;48.738;9.126;2023-04-15T00:38:47;5.90;99.90
666;DHT22;315;48.738;9.126;2023-04-15T00:41:13;5.90;99.90
666;DHT22;315;48.738;9.126;2023-04-15T00:43:39;5.90;99.90
666;DHT22;315;48.738;9.126;2023-04-15T00:46:05;5.90;99.90
666;DHT22;315;48.738;9.126;2023-04-15T00:48:31;5.80;99.90
666;DHT22;315;48.738;9.126;2023-04-15T00:50:57;5.80;99.90
666;DHT22;315;48.738;9.126;2023-04-15T00:53:22;5.80;99.90
666;DHT22;315;48.738;9.126;2023-04-15T00:55:48;5.80;99.90
666;DHT22;315;48.738;9.126;2023-04-15T00:58:14;5.80;99.90
666;DHT22;315;48.738;9.126;2023-04-15T01:00:42;5.70;99.90
666;DHT22;315;48.738;9.126;2023-04-15T01:03:07;5.70;99.90
666;DHT22;315;48.738;9.126;2023-04-15T01:05:33;5.70;99.90
666;DHT22;315;48.738;9.126;2023-04-15T01:07:59;5.70;99.90
666;DHT22;315;48.738;9.126;2023-04-15T01:10:24;5.70;99.90
666;DHT22;315;48.738;9.126;2023-04-15T01:12:50;5.70;99.90
666;DHT22;315;48.738;9.126;2023-04-15T01:15:16;5.60;99.90
666;DHT22;315;48.738;9.126;2023-04-15T01:17:42;5.50;99.90
666;DHT22;315;48.738;9.126;2023-04-15T01:20:08;5.50;99.90
666;DHT22;315;48.738;9.126;2023-04-15T01:22:37;5.40;99.90
666;DHT22;315;48.738;9.126;2023-04-15T01:25:09;5.40;99.90
666;DHT22;315;48.738;9.126;2023-04-15T01:27:38;5.40;99.90
666;DHT22;315;48.738;9.126;2023-04-15T01:30:07;5.40;99.90
666;DHT22;315;48.738;9.126;2023-04-15T01:32:33;5.40;99.90
666;DHT22;315;48.738;9.126;2023-04-15T01:34:58;5.40;99.90
666;DHT22;315;48.738;9.126;2023-04-15T01:37:24;5.40;99.90
666;DHT22;315;48.738;9.126;2023-04-15T01:39:50;5.40;99.90
666;DHT22;315;48.738;9.126;2023-04-15T01:42:16;5.40;99.90
666;DHT22;315;48.738;9.126;2023-04-15T01:44:41;5.30;99.90
666;DHT22;315;48.738;9.126;2023-04-15T01:47:07;5.30;99.90
666;DHT22;315;48.738;9.126;2023-04-15T01:49:33;5.30;99.90
666;DHT22;315;48.738;9.126;2023-04-15T01:51:58;5.30;99.90
666;DHT22;315;48.738;9.126;2023-04-15T01:54:25;5.20;99.90
666;DHT22;315;48.738;9.126;2023-04-15T01:56:51;5.20;99.90
666;DHT22;315;48.738;9.126;2023-04-15T01:59:17;5.20;99.90
666;DHT22;315;48.738;9.126;2023-04-15T02:01:43;5.10;99.90
666;DHT22;315;48.738;9.126;2023-04-15T02:04:09;5.20;99.90
666;DHT22;315;48.738;9.126;2023-04-15T02:06:41;5.10;99.90
666;DHT22;315;48.738;9.126;2023-04-15T02:09:08;5.10;99.90
666;DHT22;315;48.738;9.126;2023-04-15T02:11:34;5.10;99.90
666;DHT22;315;48.738;9.126;2023-04-15T02:14:01;5.00;99.90
666;DHT22;315;48.738;9.126;2023-04-15T02:16:28;5.00;99.90
666;DHT22;315;48.738;9.126;2023-04-15T02:18:53;5.00;99.90
666;DHT22;315;48.738;9.126;2023-04-15T02:21:19;4.90;99.90
666;DHT22;315;48.738;9.126;2023-04-15T02:23:44;4.90;99.90
666;DHT22;315;48.738;9.126;2023-04-15T02:26:13;4.80;99.90
666;DHT22;315;48.738;9.126;2023-04-15T02:28:38;4.90;99.90
666;DHT22;315;48.738;9.126;2023-04-15T02:31:05;4.80;99.90
666;DHT22;315;48.738;9.126;2023-04-15T02:33:31;4.80;99.90
666;DHT22;315;48.738;9.126;2023-04-15T02:35:56;4.90;99.90
666;DHT22;315;48.738;9.126;2023-04-15T02:38:23;4.90;99.90
666;DHT22;315;48.738;9.126;2023-04-15T02:40:49;4.80;99.90
666;DHT22;315;48.738;9.126;2023-04-15T02:43:15;4.80;99.90
666;DHT22;315;48.738;9.126;2023-04-15T02:45:42;4.80;99.90
666;DHT22;315;48.738;9.126;2023-04-15T02:48:08;4.80;99.90
666;DHT22;315;48.738;9.126;2023-04-15T02:50:34;4.80;99.90
666;DHT22;315;48.738;9.126;2023-04-15T02:53:00;4.70;99.90
666;DHT22;315;48.738;9.126;2023-04-15T02:55:25;4.70;99.90
666;DHT22;315;48.738;9.126;2023-04-15T02:57:51;4.70;99.90
666;DHT22;315;48.738;9.126;2023-04-15T03:00:17;4.70;99.90
666;DHT22;315;48.738;9.126;2023-04-15T03:02:44;4.70;99.90
666;DHT22;315;48.738;9.126;2023-04-15T03:05:12;4.60;99.90
666;DHT22;315;48.738;9.126;2023-04-15T03:07:37;4.70;99.90
666;DHT22;315;48.738;9.126;2023-04-15T03:10:04;4.70;99.90
666;DHT22;315;48.738;9.126;2023-04-15T03:12:30;4.70;99.90
666;DHT22;315;48.738;9.126;2023-04-15T03:14:56;4.60;99.90
666;DHT22;315;48.738;9.126;2023-04-15T03:17:21;4.60;99.90
666;DHT22;315;48.738;9.126;2023-04-15T03:19:47;4.60;99.90
666;DHT22;315;48.738;9.126;2023-04-15T03:22:12;4.50;99.90
666;DHT22;315;48.738;9.126;2023-04-15T03:24:38;4.50;99.90
666;DHT22;315;48.738;9.126;2023-04-15T03:27:03;4.50;99.90
666;DHT22;315;48.738;9.126;2023-04-15T03:29:30;4.50;99.90
666;DHT22;315;48.738;9.126;2023-04-15T03:31:56;4.50;99.90
666;DHT22;315;48.738;9.126;2023-04-15T03:34:21;4.50;99.90
666;DHT22;315;48.738;9.126;2023-04-15T03:36:47;4.60;99.90
666;DHT22;315;48.738;9.126;2023-04-15T03:39:12;4.60;99.90
666;DHT22;315;48.738;9.126;2023-04-15T03:41:38;4.50;99.90
666;DHT22;315;48.738;9.126;2023-04-15T03:44:03;4.60;99.90
666;DHT22;315;48.738;9.126;2023-04-15T03:46:29;4.60;99.90
666;DHT22;315;48.738;9.126;2023-04-15T03:48:55;4.70;99.90
666;DHT22;315;48.738;9.126;2023-04-15T03:51:20;4.70;99.90
666;DHT22;315;48.738;9.126;2023-04-15T03:53:46;4.60;99.90
666;DHT22;315;48.738;9.126;2023-04-15T03:56:12;4.60;99.90
666;DHT22;315;48.738;9.126;2023-04-15T03:58:37;4.50;99.90
666;DHT22;315;48.738;9.126;2023-04-15T04:01:02;4.50;99.90
666;DHT22;315;48.738;9.126;2023-04-15T04:03:28;4.40;99.90
666;DHT22;315;48.738;9.126;2023-04-15T04:05:55;4.50;99.90
666;DHT22;315;48.738;9.126;2023-04-15T04:08:20;4.50;99.90
666;DHT22;315;48.738;9.126;2023-04-15T04:10:46;4.40;99.90
666;DHT22;315;48.738;9.126;2023-04-15T04:13:11;4.40;99.90
666;DHT22;315;48.738;9.126;2023-04-15T04:15:37;4.40;99.90
666;DHT22;315;48.738;9.126;2023-04-15T04:18:02;4.40;99.90
666;DHT22;315;48.738;9.126;2023-04-15T04:20:28;4.50;99.90
666;DHT22;315;48.738;9.126;2023-04-15T04:22:56;4.50;99.90
666;DHT22;315;48.738;9.126;2023-04-15T04:25:21;4.50;99.90
666;DHT22;315;48.738;9.126;2023-04-15T04:27:47;4.50;99.90
666;DHT22;315;48.738;9.126;2023-04-15T04:30:13;4.50;99.90
666;DHT22;315;48.738;9.126;2023-04-15T04:32:38;4.50;99.90
666;DHT22;315;48.738;9.126;2023-04-15T04:35:04;4.50;99.90
666;DHT22;315;48.738;9.126;2023-04-15T04:37:29;4.40;99.90
666;DHT22;315;48.738;9.126;2023-04-15T04:39:55;4.40;99.90
666;DHT22;315;48.738;9.126;2023-04-15T04:42:21;4.30;99.90
666;DHT22;315;48.738;9.126;2023-04-15T04:44:46;4.30;99.90
666;DHT22;315;48.738;9.126;2023-04-15T04:47:12;4.30;99.90
666;DHT22;315;48.738;9.126;2023-04-15T04:49:38;4.20;99.90
666;DHT22;315;48.738;9.126;2023-04-15T04:52:04;4.20;99.90
666;DHT22;315;48.738;9.126;2023-04-15T04:54:29;4.20;99.90
666;DHT22;315;48.738;9.126;2023-04-15T04:56:55;4.20;99.90
666;DHT22;315;48.738;9.126;2023-04-15T04:59:22;4.30;99.90
666;DHT22;315;48.738;9.126;2023-04-15T05:01:48;4.30;99.90
666;DHT22;315;48.738;9.126;2023-04-15T05:04:13;4.40;99.90
666;DHT22;315;48.738;9.126;2023-04-15T05:06:39;4.40;99.90
666;DHT22;315;48.738;9.126;2023-04-15T05:09:04;4.50;99.90
666;DHT22;315;48.738;9.126;2023-04-15T05:11:30;4.50;99.90
666;DHT22;315;48.738;9.126;2023-04-15T05:13:55;4.50;99.90
666;DHT22;315;48.738;9.126;2023-04-15T05:16:22;4.60;99.90
666;DHT22;315;48.738;9.126;2023-04-15T05:18:47;4.60;99.90
666;DHT22;315;48.738;9.126;2023-04-15T05:21:13;4.70;99.90
666;DHT22;315;48.738;9.126;2023-04-15T05:23:39;4.70;99.90
666;DHT22;315;48.738;9.126;2023-04-15T05:26:05;4.80;99.90
666;DHT22;315;48.738;9.126;2023-04-15T05:28:30;4.90;99.90
666;DHT22;315;48.738;9.126;2023-04-15T05:30:56;5.10;99.90
666;DHT22;315;48.738;9.126;2023-04-15T05:33:22;5.30;99.90
666;DHT22;315;48.738;9.126;2023-04-15T05:35:47;5.50;99.90
666;DHT22;315;48.738;9.126;2023-04-15T05:38:13;5.70;99.90
666;DHT22;315;48.738;9.126;2023-04-15T05:40:38;5.80;99.90
666;DHT22;315;48.738;9.126;2023-04-15T05:43:04;5.90;99.90
666;DHT22;315;48.738;9.126;2023-04-15T05:45:29;6.00;99.90
666;DHT22;315;48.738;9.126;2023-04-15T05:47:55;6.10;99.90
666;DHT22;315;48.738;9.126;2023-04-15T05:50:21;6.30;99.90
666;DHT22;315;48.738;9.126;2023-04-15T05:52:46;6.40;99.90
666;DHT22;315;48.738;9.126;2023-04-15T05:55:12;6.60;99.90
666;DHT22;315;48.738;9.126;2023-04-15T05:57:38;6.70;99.90
666;DHT22;315;48.738;9.126;2023-04-15T06:00:04;6.80;99.90
666;DHT22;315;48.738;9.126;2023-04-15T06:02:30;6.80;99.90
666;DHT22;315;48.738;9.126;2023-04-15T06:04:56;6.90;99.90
666;DHT22;315;48.738;9.126;2023-04-15T06:07:22;6.90;99.90
666;DHT22;315;48.738;9.126;2023-04-15T06:09:48;6.90;99.90
666;DHT22;315;48.738;9.126;2023-04-15T06:12:14;7.00;99.90
666;DHT22;315;48.738;9.126;2023-04-15T06:14:40;7.10;99.90
666;DHT22;315;48.738;9.126;2023-04-15T06:17:06;7.30;99.90
666;DHT22;315;48.738;9.126;2023-04-15T06:19:32;7.40;99.90
666;DHT22;315;48.738;9.126;2023-04-15T06:21:57;7.50;99.90
666;DHT22;315;48.738;9.126;2023-04-15T06:24:23;7.70;99.90
666;DHT22;315;48.738;9.126;2023-04-15T06:26:49;7.90;99.90
666;DHT22;315;48.738;9.126;2023-04-15T06:29:15;8.20;99.90
666;DHT22;315;48.738;9.126;2023-04-15T06:31:40;8.40;99.90
666;DHT22;315;48.738;9.126;2023-04-15T06:34:06;8.60;99.90
666;DHT22;315;48.738;9.126;2023-04-15T06:36:32;8.80;99.90
666;DHT22;315;48.738;9.126;2023-04-15T06:38:57;9.00;99.90
666;DHT22;315;48.738;9.126;2023-04-15T06:41:23;9.40;99.90
666;DHT22;315;48.738;9.126;2023-04-15T06:43:48;9.70;99.90
666;DHT22;315;48.738;9.126;2023-04-15T06:46:14;10.00;99.90
666;DHT22;315;48.738;9.126;2023-04-15T06:48:40;10.20;99.90
666;DHT22;315;48.738;9.126;2023-04-15T06:51:06;10.60;99.90
666;DHT22;315;48.738;9.126;2023-04-15T06:53:32;10.90;99.90
666;DHT22;315;48.738;9.126;2023-04-15T06:55:57;11.20;99.90
666;DHT22;315;48.738;9.126;2023-04-15T06:58:23;11.50;99.90
666;DHT22;315;48.738;9.126;2023-04-15T07:00:48;11.60;99.90
666;DHT22;315;48.738;9.126;2023-04-15T07:03:14;11.60;99.90
666;DHT22;315;48.738;9.126;2023-04-15T07:05:40;11.50;99.90
666;DHT22;315;48.738;9.126;2023-04-15T07:08:06;11.50;99.90
666;DHT22;315;48.738;9.126;2023-04-15T07:10:32;11.50;99.90
666;DHT22;315;48.738;9.126;2023-04-15T07:12:58;11.60;99.90
666;DHT22;315;48.738;9.126;2023-04-15T07:15:24;11.70;99.90
666;DHT22;315;48.738;9.126;2023-04-15T07:17:49;11.80;99.90
666;DHT22;315;48.738;9.126;2023-04-15T07:20:15;11.80;99.90
666;DHT22;315;48.738;9.126;2023-04-15T07:22:41;11.90;99.90
666;DHT22;315;48.738;9.126;2023-04-15T07:25:07;12.00;99.90
666;DHT22;315;48.738;9.126;2023-04-15T07:27:33;12.30;99.90
666;DHT22;315;48.738;9.126;2023-04-15T07:29:58;12.70;99.90
666;DHT22;315;48.738;9.126;2023-04-15T07:32:24;12.80;99.90
666;DHT22;315;48.738;9.126;2023-04-15T07:34:50;12.90;99.90
666;DHT22;315;48.738;9.126;2023-04-15T07:37:16;12.90;99.90
666;DHT22;315;48.738;9.126;2023-04-15T07:39:41;13.10;99.90
666;DHT22;315;48.738;9.126;2023-04-15T07:42:07;13.60;99.90
666;DHT22;315;48.738;9.126;2023-04-15T07:44:33;14.00;99.90
666;DHT22;315;48.738;9.126;2023-04-15T07:46:59;14.10;99.90
666;DHT22;315;48.738;9.126;2023-04-15T07:49:24;14.40;99.90
666;DHT22;315;48.738;9.126;2023-04-15T07:51:50;14.90;99.90
666;DHT22;315;48.738;9.126;2023-04-15T07:54:15;15.10;99.90
666;DHT22;315;48.738;9.126;2023-04-15T07:56:41;15.60;99.90
666;DHT22;315;48.738;9.126;2023-04-15T07:59:07;15.90;96.50
666;DHT22;315;48.738;9.126;2023-04-15T08:01:34;15.90;94.20
666;DHT22;315;48.738;9.126;2023-04-15T08:04:00;15.70;95.90
666;DHT22;315;48.738;9.126;2023-04-15T08:06:25;15.50;95.50
666;DHT22;315;48.738;9.126;2023-04-15T08:08:51;15.10;95.90
666;DHT22;315;48.738;9.126;2023-04-15T08:11:18;14.70;97.00
666;DHT22;315;48.738;9.126;2023-04-15T08:13:45;14.40;98.20
666;DHT22;315;48.738;9.126;2023-04-15T08:16:22;14.30;98.80
666;DHT22;315;48.738;9.126;2023-04-15T08:18:49;14.00;98.70
666;DHT22;315;48.738;9.126;2023-04-15T08:21:16;13.90;99.20
666;DHT22;315;48.738;9.126;2023-04-15T08:23:43;13.90;99.60
666;DHT22;315;48.738;9.126;2023-04-15T08:26:09;14.20;99.20
666;DHT22;315;48.738;9.126;2023-04-15T08:28:36;14.80;98.60
666;DHT22;315;48.738;9.126;2023-04-15T08:31:02;15.50;97.40
666;DHT22;315;48.738;9.126;2023-04-15T08:33:28;16.10;93.30
666;DHT22;315;48.738;9.126;2023-04-15T08:35:53;16.40;92.60
666;DHT22;315;48.738;9.126;2023-04-15T08:38:19;16.40;91.90
666;DHT22;315;48.738;9.126;2023-04-15T08:40:45;16.60;90.10
666;DHT22;315;48.738;9.126;2023-04-15T08:43:21;16.50;88.30
666;DHT22;315;48.738;9.126;2023-04-15T08:45:51;16.50;88.90
666;DHT22;315;48.738;9.126;2023-04-15T08:48:17;16.50;85.80
666;DHT22;315;48.738;9.126;2023-04-15T08:50:44;16.80;85.90
666;DHT22;315;48.738;9.126;2023-04-15T08:53:11;17.30;81.10
666;DHT22;315;48.738;9.126;2023-04-15T08:55:44;17.70;77.80
666;DHT22;315;48.738;9.126;2023-04-15T08:58:10;18.10;76.70
666;DHT22;315;48.738;9.126;2023-04-15T09:00:37;18.30;74.10
666;DHT22;315;48.738;9.126;2023-04-15T09:03:06;18.10;70.70
666;DHT22;315;48.738;9.126;2023-04-15T09:05:36;18.00;70.20
666;DHT22;315;48.738;9.126;2023-04-15T09:08:03;18.40;69.60
666;DHT22;315;48.738;9.126;2023-04-15T09:10:30;19.10;66.40
666;DHT22;315;48.738;9.126;2023-04-15T09:12:56;19.00;65.10
666;DHT22;315;48.738;9.126;2023-04-15T09:15:24;18.60;63.70
666;DHT22;315;48.738;9.126;2023-04-15T09:17:52;18.40;64.30
666;DHT22;315;48.738;9.126;2023-04-15T09:20:17;18.40;63.80
666;DHT22;315;48.738;9.126;2023-04-15T09:22:45;18.30;65.00
666;DHT22;315;48.738;9.126;2023-04-15T09:27:51;19.80;63.50
666;DHT22;315;48.738;9.126;2023-04-15T09:30:17;20.60;60.40
666;DHT22;315;48.738;9.126;2023-04-15T09:35:18;20.80;57.20
666;DHT22;315;48.738;9.126;2023-04-15T09:37:44;20.80;56.60
666;DHT22;315;48.738;9.126;2023-04-15T09:40:10;20.70;56.60
666;DHT22;315;48.738;9.126;2023-04-15T09:42:36;20.60;56.50
666;DHT22;315;48.738;9.126;2023-04-15T09:45:18;20.50;55.80
666;DHT22;315;48.738;9.126;2023-04-15T09:47:43;21.00;55.20
666;DHT22;315;48.738;9.126;2023-04-15T09:50:09;21.60;54.00
666;DHT22;315;48.738;9.126;2023-04-15T09:52:40;21.20;53.90
666;DHT22;315;48.738;9.126;2023-04-15T09:55:07;20.90;53.20
666;DHT22;315;48.738;9.126;2023-04-15T09:57:34;20.60;52.40
666;DHT22;315;48.738;9.126;2023-04-15T10:00:02;20.50;53.20
666;DHT22;315;48.738;9.126;2023-04-15T10:02:28;20.50;53.10
666;DHT22;315;48.738;9.126;2023-04-15T10:04:54;20.50;52.80
666;DHT22;315;48.738;9.126;2023-04-15T10:07:21;20.30;53.10
666;DHT22;315;48.738;9.126;2023-04-15T10:09:47;19.50;54.10
666;DHT22;315;48.738;9.126;2023-04-15T10:12:16;19.20;54.50
666;DHT22;315;48.738;9.126;2023-04-15T10:14:41;18.90;54.60
666;DHT22;315;48.738;9.126;2023-04-15T10:17:10;18.60;54.60
666;DHT22;315;48.738;9.126;2023-04-15T10:19:37;18.50;54.00
666;DHT22;315;48.738;9.126;2023-04-15T10:22:03;18.60;54.80
666;DHT22;315;48.738;9.126;2023-04-15T10:24:32;18.10;53.50
666;DHT22;315;48.738;9.126;2023-04-15T10:27:02;17.80;55.80
666;DHT22;315;48.738;9.126;2023-04-15T10:29:29;18.10;56.00
666;DHT22;315;48.738;9.126;2023-04-15T10:31:58;18.40;56.60
666;DHT22;315;48.738;9.126;2023-04-15T10:34:25;18.80;55.60
666;DHT22;315;48.738;9.126;2023-04-15T10:37:02;18.70;56.20
666;DHT22;315;48.738;9.126;2023-04-15T10:39:42;18.50;57.40
666;DHT22;315;48.738;9.126;2023-04-15T10:42:18;17.90;57.10
666;DHT22;315;48.738;9.126;2023-04-15T10:44:51;18.30;58.10
666;DHT22;315;48.738;9.126;2023-04-15T10:47:21;19.30;55.80
666;DHT22;315;48.738;9.126;2023-04-15T10:49:48;19.80;54.00
666;DHT22;315;48.738;9.126;2023-04-15T10:52:16;19.80;54.30
666;DHT22;315;48.738;9.126;2023-04-15T10:54:43;19.90;54.40
666;DHT22;315;48.738;9.126;2023-04-15T10:57:14;19.90;55.30
666;DHT22;315;48.738;9.126;2023-04-15T11:02:39;19.00;56.10
666;DHT22;315;48.738;9.126;2023-04-15T11:05:06;18.80;56.80
666;DHT22;315;48.738;9.126;2023-04-15T11:12:44;18.30;58.20
666;DHT22;315;48.738;9.126;2023-04-15T11:15:39;18.00;58.10
666;DHT22;315;48.738;9.126;2023-04-15T11:18:09;17.60;59.70
666;DHT22;315;48.738;9.126;2023-04-15T11:20:36;17.20;64.50
666;DHT22;315;48.738;9.126;2023-04-15T11:23:04;16.80;65.40
666;DHT22;315;48.738;9.126;2023-04-15T11:25:31;16.60;65.00
666;DHT22;315;48.738;9.126;2023-04-15T11:27:58;16.90;63.10
666;DHT22;315;48.738;9.126;2023-04-15T11:30:29;17.30;62.10
666;DHT22;315;48.738;9.126;2023-04-15T11:32:59;18.00;61.00
666;DHT22;315;48.738;9.126;2023-04-15T11:35:25;19.50;57.20
666;DHT22;315;48.738;9.126;2023-04-15T11:37:51;21.60;54.20
666;DHT22;315;48.738;9.126;2023-04-15T11:40:22;21.60;52.30
666;DHT22;315;48.738;9.126;2023-04-15T11:45:33;20.20;52.60
666;DHT22;315;48.738;9.126;2023-04-15T11:48:09;18.90;54.70
666;DHT22;315;48.738;9.126;2023-04-15T11:50:36;18.00;57.50
666;DHT22;315;48.738;9.126;2023-04-15T11:53:03;17.40;59.80
666;DHT22;315;48.738;9.126;2023-04-15T11:55:30;18.10;60.50
666;DHT22;315;48.738;9.126;2023-04-15T12:00:38;21.60;50.60
666;DHT22;315;48.738;9.126;2023-04-15T12:06:02;21.90;50.00
666;DHT22;315;48.738;9.126;2023-04-15T12:14:19;20.60;51.10
666;DHT22;315;48.738;9.126;2023-04-15T12:16:47;20.70;50.40
666;DHT22;315;48.738;9.126;2023-04-15T12:19:15;20.50;50.00
666;DHT22;315;48.738;9.126;2023-04-15T12:21:44;21.30;51.00
666;DHT22;315;48.738;9.126;2023-04-15T12:24:10;21.60;50.20
666;DHT22;315;48.738;9.126;2023-04-15T12:26:51;21.80;49.00
666;DHT22;315;48.738;9.126;2023-04-15T12:29:18;21.60;49.20
666;DHT22;315;48.738;9.126;2023-04-15T12:34:15;20.70;50.50
666;DHT22;315;48.738;9.126;2023-04-15T12:36:41;21.30;48.90
666;DHT22;315;48.738;9.126;2023-04-15T12:39:06;22.50;47.80
666;DHT22;315;48.738;9.126;2023-04-15T12:41:32;23.00;49.10
666;DHT22;315;48.738;9.126;2023-04-15T12:43:58;22.60;50.00
666;DHT22;315;48.738;9.126;2023-04-15T12:46:24;21.60;51.20
666;DHT22;315;48.738;9.126;2023-04-15T12:48:50;20.60;53.30
666;DHT22;315;48.738;9.126;2023-04-15T12:51:17;20.10;54.70
666;DHT22;315;48.738;9.126;2023-04-15T12:53:43;19.80;55.60
666;DHT22;315;48.738;9.126;2023-04-15T12:56:08;19.20;57.30
666;DHT22;315;48.738;9.126;2023-04-15T12:58:34;18.60;59.60
666;DHT22;315;48.738;9.126;2023-04-15T13:01:00;18.10;62.00
666;DHT22;315;48.738;9.126;2023-04-15T13:03:25;17.30;65.50
666;DHT22;315;48.738;9.126;2023-04-15T13:05:51;17.00;70.10
666;DHT22;315;48.738;9.126;2023-04-15T13:08:17;16.70;71.60
666;DHT22;315;48.738;9.126;2023-04-15T13:10:42;16.50;75.70
666;DHT22;315;48.738;9.126;2023-04-15T13:13:08;16.50;77.40
666;DHT22;315;48.738;9.126;2023-04-15T13:15:34;16.20;77.30
666;DHT22;315;48.738;9.126;2023-04-15T13:17:59;16.10;74.70
666;DHT22;315;48.738;9.126;2023-04-15T13:20:25;15.80;77.90
666;DHT22;315;48.738;9.126;2023-04-15T13:22:53;15.70;78.40
666;DHT22;315;48.738;9.126;2023-04-15T13:25:19;15.70;79.30
666;DHT22;315;48.738;9.126;2023-04-15T13:27:45;15.90;77.50
666;DHT22;315;48.738;9.126;2023-04-15T13:30:11;15.90;75.40
666;DHT22;315;48.738;9.126;2023-04-15T13:32:36;16.00;75.00
666;DHT22;315;48.738;9.126;2023-04-15T13:35:02;15.80;76.10
666;DHT22;315;48.738;9.126;2023-04-15T13:37:29;15.60;72.10
666;DHT22;315;48.738;9.126;2023-04-15T13:39:55;15.40;69.80
666;DHT22;315;48.738;9.126;2023-04-15T13:42:21;15.20;71.10
666;DHT22;315;48.738;9.126;2023-04-15T13:44:48;15.30;69.80
666;DHT22;315;48.738;9.126;2023-04-15T13:47:13;15.30;68.30
666;DHT22;315;48.738;9.126;2023-04-15T13:49:40;15.10;69.90
666;DHT22;315;48.738;9.126;2023-04-15T13:52:06;15.30;69.10
666;DHT22;315;48.738;9.126;2023-04-15T13:54:31;15.30;69.00
666;DHT22;315;48.738;9.126;2023-04-15T13:56:57;15.40;67.50
666;DHT22;315;48.738;9.126;2023-04-15T13:59:23;15.50;66.10
666;DHT22;315;48.738;9.126;2023-04-15T14:01:48;15.50;64.40
666;DHT22;315;48.738;9.126;2023-04-15T14:04:14;15.90;64.70
666;DHT22;315;48.738;9.126;2023-04-15T14:06:39;15.80;62.10
666;DHT22;315;48.738;9.126;2023-04-15T14:09:05;15.60;61.70
666;DHT22;315;48.738;9.126;2023-04-15T14:11:31;15.70;62.20
666;DHT22;315;48.738;9.126;2023-04-15T14:13:56;15.70;61.30
666;DHT22;315;48.738;9.126;2023-04-15T14:16:22;15.50;61.00
666;DHT22;315;48.738;9.126;2023-04-15T14:18:47;15.30;60.60
666;DHT22;315;48.738;9.126;2023-04-15T14:21:13;15.10;61.20
666;DHT22;315;48.738;9.126;2023-04-15T14:23:39;14.90;60.90
666;DHT22;315;48.738;9.126;2023-04-15T14:26:05;14.60;58.00
666;DHT22;315;48.738;9.126;2023-04-15T14:28:30;14.30;58.10
666;DHT22;315;48.738;9.126;2023-04-15T14:30:56;14.00;57.80
666;DHT22;315;48.738;9.126;2023-04-15T14:33:22;13.90;57.20
666;DHT22;315;48.738;9.126;2023-04-15T14:35:48;13.80;58.30
666;DHT22;315;48.738;9.126;2023-04-15T14:38:15;13.80;58.70
666;DHT22;315;48.738;9.126;2023-04-15T14:40:41;13.80;58.80
666;DHT22;315;48.738;9.126;2023-04-15T14:43:06;13.80;58.30
666;DHT22;315;48.738;9.126;2023-04-15T14:45:32;13.80;58.70
666;DHT22;315;48.738;9.126;2023-04-15T14:47:58;13.90;58.80
666;DHT22;315;48.738;9.126;2023-04-15T14:50:24;13.80;59.30
666;DHT22;315;48.738;9.126;2023-04-15T14:52:49;13.70;61.00
666;DHT22;315;48.738;9.126;2023-04-15T14:55:15;13.80;61.00
666;DHT22;315;48.738;9.126;2023-04-15T14:57:41;13.80;61.70
666;DHT22;315;48.738;9.126;2023-04-15T15:00:08;13.80;62.40
666;DHT22;315;48.738;9.126;2023-04-15T15:02:35;13.80;64.10
666;DHT22;315;48.738;9.126;2023-04-15T15:05:01;13.60;65.60
666;DHT22;315;48.738;9.126;2023-04-15T15:07:27;13.30;67.60
666;DHT22;315;48.738;9.126;2023-04-15T15:09:53;13.00;69.80
666;DHT22;315;48.738;9.126;2023-04-15T15:12:18;12.90;74.50
666;DHT22;315;48.738;9.126;2023-04-15T15:14:44;12.60;79.10
666;DHT22;315;48.738;9.126;2023-04-15T15:17:10;12.50;80.30
666;DHT22;315;48.738;9.126;2023-04-15T15:19:35;12.30;81.60
666;DHT22;315;48.738;9.126;2023-04-15T15:22:02;12.30;82.40
666;DHT22;315;48.738;9.126;2023-04-15T15:24:28;12.30;83.30
666;DHT22;315;48.738;9.126;2023-04-15T15:26:53;12.30;85.30
666;DHT22;315;48.738;9.126;2023-04-15T15:29:19;12.30;86.70
666;DHT22;315;48.738;9.126;2023-04-15T15:31:45;12.20;90.30
666;DHT22;315;48.738;9.126;2023-04-15T15:34:10;12.10;91.30
666;DHT22;315;48.738;9.126;2023-04-15T15:36:36;12.00;90.90
666;DHT22;315;48.738;9.126;2023-04-15T15:39:02;12.00;94.20
666;DHT22;315;48.738;9.126;2023-04-15T15:41:27;12.10;93.90
666;DHT22;315;48.738;9.126;2023-04-15T15:43:53;12.10;95.80
666;DHT22;315;48.738;9.126;2023-04-15T15:46:18;12.20;99.90
666;DHT22;315;48.738;9.126;2023-04-15T15:48:44;12.20;99.90
666;DHT22;315;48.738;9.126;2023-04-15T15:51:10;12.10;99.90
666;DHT22;315;48.738;9.126;2023-04-15T15:53:35;12.00;99.90
666;DHT22;315;48.738;9.126;2023-04-15T15:56:01;12.00;99.90
666;DHT22;315;48.738;9.126;2023-04-15T15:58:29;12.10;99.90
666;DHT22;315;48.738;9.126;2023-04-15T16:00:54;12.10;99.80
666;DHT22;315;48.738;9.126;2023-04-15T16:03:21;12.20;98.60
666;DHT22;315;48.738;9.126;2023-04-15T16:05:46;12.20;98.80
666;DHT22;315;48.738;9.126;2023-04-15T16:08:12;12.20;97.40
666;DHT22;315;48.738;9.126;2023-04-15T16:10:37;12.10;96.80
666;DHT22;315;48.738;9.126;2023-04-15T16:13:03;12.00;99.90
666;DHT22;315;48.738;9.126;2023-04-15T16:15:29;12.00;98.10
666;DHT22;315;48.738;9.126;2023-04-15T16:17:54;12.00;98.00
666;DHT22;315;48.738;9.126;2023-04-15T16:20:20;11.90;99.90
666;DHT22;315;48.738;9.126;2023-04-15T16:22:45;11.90;99.90
666;DHT22;315;48.738;9.126;2023-04-15T16:25:11;11.80;99.00
666;DHT22;315;48.738;9.126;2023-04-15T16:27:37;11.80;99.90
666;DHT22;315;48.738;9.126;2023-04-15T16:30:03;11.90;99.90
666;DHT22;315;48.738;9.126;2023-04-15T16:32:28;11.90;99.90
666;DHT22;315;48.738;9.126;2023-04-15T16:34:54;11.90;99.90
666;DHT22;315;48.738;9.126;2023-04-15T16:37:20;11.90;99.90
666;DHT22;315;48.738;9.126;2023-04-15T16:39:46;11.70;99.90
666;DHT22;315;48.738;9.126;2023-04-15T16:42:11;11.70;99.90
666;DHT22;315;48.738;9.126;2023-04-15T16:44:37;11.60;99.90
666;DHT22;315;48.738;9.126;2023-04-15T16:47:02;11.60;99.90
666;DHT22;315;48.738;9.126;2023-04-15T16:49:28;11.50;99.90
666;DHT22;315;48.738;9.126;2023-04-15T16:51:54;11.30;99.90
666;DHT22;315;48.738;9.126;2023-04-15T16:54:20;11.40;99.90
666;DHT22;315;48.738;9.126;2023-04-15T16:56:45;11.40;99.90
666;DHT22;315;48.738;9.126;2023-04-15T16:59:11;11.50;99.90
666;DHT22;315;48.738;9.126;2023-04-15T17:01:36;11.40;99.90
666;DHT22;315;48.738;9.126;2023-04-15T17:04:02;11.30;99.90
666;DHT22;315;48.738;9.126;2023-04-15T17:06:27;11.20;99.90